Time;durP1;ratioP1;P1;durP2;ratioP2;P2;SDS_P1;SDS_P2;PMS_P1;PMS_P2;Temp;Humidity;BMP_temperature;BMP_pressure;BME280_temperature;BME280_humidity;BME280_pressure;Samples;Min_cycle;Max_cycle;Signal;HPM_P1;HPM_P2
2023/09/05 07:23:09;;;;;;;6.85;3.20;;;;;;;-145.79;64.83;77260.69;5277387;27;1958495;-72
2023/09/05 07:25:41;;;;;;;6.13;3.70;;;;;;;-145.79;64.38;77256.47;5343673;28;20024;-72
2023/09/05 07:28:12;;;;;;;9.27;3.72;;;;;;;-145.79;64.28;77245.84;5338370;28;20031;-71
2023/09/05 07:30:43;;;;;;;4.22;3.03;;;;;;;-145.79;63.97;77237.38;5343558;28;20039;-72
2023/09/05 07:33:15;;;;;;;6.78;3.25;;;;;;;-145.79;63.27;77214.06;5343303;28;20050;-72
2023/09/05 07:35:46;;;;;;;4.93;3.03;;;;;;;-145.79;63.80;77207.72;5342455;28;20135;-71
2023/09/05 07:38:20;;;;;;;4.32;3.00;;;;;;;-145.79;63.07;77195.00;5342814;28;20382;-72
2023/09/05 07:41:02;;;;;;;3.20;2.90;;;;;;;-145.79;62.70;77182.28;5342555;28;20042;-73
2023/09/05 07:43:34;;;;;;;3.55;3.00;;;;;;;-145.79;62.15;77173.78;5342409;28;20065;-72
2023/09/05 07:46:05;;;;;;;5.53;3.17;;;;;;;-145.79;62.40;77165.31;5343171;28;20440;-72
2023/09/05 07:48:37;;;;;;;3.80;2.95;;;;;;;-145.79;61.90;77152.59;5342284;28;20371;-71
2023/09/05 07:51:09;;;;;;;6.07;3.88;;;;;;;-145.79;61.29;77150.47;5339309;28;20043;-72
2023/09/05 07:53:50;;;;;;;4.57;3.08;;;;;;;-145.79;61.16;77144.13;5341761;28;20023;-72
2023/09/05 07:56:21;;;;;;;3.88;2.90;;;;;;;-145.79;60.96;77139.88;5338423;28;20102;-69
2023/09/05 07:58:52;;;;;;;4.32;3.08;;;;;;;-145.79;60.61;77122.94;5338816;28;20107;-70
2023/09/05 08:01:25;;;;;;;3.63;2.72;;;;;;;-145.79;60.98;77118.69;5342788;28;20027;-70
2023/09/05 08:03:57;;;;;;;4.75;3.22;;;;;;;-145.79;61.41;77114.44;5341966;28;20030;-70
2023/09/05 08:06:28;;;;;;;6.97;3.63;;;;;;;-145.79;59.94;77101.72;5342286;28;20031;-70
2023/09/05 08:09:00;;;;;;;5.15;3.30;;;;;;;-145.79;59.36;77097.50;5339082;28;20023;-70
2023/09/05 08:11:31;;;;;;;7.18;3.17;;;;;;;-145.79;59.62;77095.38;5342422;28;20036;-72
2023/09/05 08:14:02;;;;;;;4.68;3.10;;;;;;;-145.79;59.16;77084.78;5342474;28;20032;-72
2023/09/05 08:16:34;;;;;;;7.03;3.30;;;;;;;-145.79;59.30;77063.59;5341995;28;20405;-72
2023/09/05 08:19:06;;;;;;;6.60;3.20;;;;;;;-145.79;59.05;77055.09;5342427;28;20035;-72
2023/09/05 08:21:37;;;;;;;5.15;2.75;;;;;;;-145.79;58.96;77040.25;5342252;28;20502;-71
2023/09/05 08:24:09;;;;;;;6.85;3.05;;;;;;;-145.79;59.19;77031.78;5341646;28;20055;-72
2023/09/05 08:26:40;;;;;;;4.85;3.15;;;;;;;-145.79;58.21;77016.94;5341895;28;20026;-72
2023/09/05 08:29:14;;;;;;;7.45;3.15;;;;;;;-145.79;58.70;77016.94;5341873;28;20019;-72
2023/09/05 08:31:45;;;;;;;4.63;3.30;;;;;;;-145.79;57.73;77000.00;5341021;28;20475;-72
2023/09/05 08:34:16;;;;;;;6.03;3.10;;;;;;;-145.79;57.80;76987.28;5323415;28;20027;-74
2023/09/05 08:36:48;;;;;;;4.03;2.95;;;;;;;-145.79;57.31;76976.69;5327399;28;20058;-73
2023/09/05 08:39:20;;;;;;;4.32;2.70;;;;;;;-145.79;56.57;76963.97;5328069;28;20518;-73
2023/09/05 08:41:52;;;;;;;5.43;2.72;;;;;;;-145.79;56.28;76949.13;5327925;28;20098;-73
2023/09/05 08:44:23;;;;;;;3.38;2.50;;;;;;;-145.79;56.59;76936.41;5326767;28;20098;-72
2023/09/05 08:46:55;;;;;;;3.40;2.17;;;;;;;-145.79;56.83;76936.41;5327805;28;20143;-75
2023/09/05 08:49:26;;;;;;;4.90;2.70;;;;;;;-145.79;56.46;76921.59;5326965;28;20106;-73
2023/09/05 08:52:02;;;;;;;5.28;3.00;;;;;;;-145.79;55.42;76923.69;5324834;28;20406;-73
2023/09/05 08:54:33;;;;;;;6.00;3.50;;;;;;;-145.79;54.80;76913.09;5323952;28;20024;-73
2023/09/05 08:57:05;;;;;;;2.88;2.60;;;;;;;-145.79;54.90;76904.63;5326439;28;20031;-73
2023/09/05 08:59:37;;;;;;;5.05;2.72;;;;;;;-145.79;55.47;76894.03;5326149;28;20031;-73
2023/09/05 09:02:14;;;;;;;6.75;3.20;;;;;;;-145.79;54.71;76881.31;5326692;28;20024;-72
2023/09/05 09:04:56;;;;;;;3.42;2.88;;;;;;;-145.79;54.47;76874.94;5326452;28;20035;-73
2023/09/05 09:07:27;;;;;;;3.97;2.58;;;;;;;-145.79;54.61;76853.75;5326248;28;20096;-73
2023/09/05 09:09:59;;;;;;;6.75;2.63;;;;;;;-145.79;53.88;76855.88;5326784;28;20431;-74
2023/09/05 09:12:32;;;;;;;6.25;2.88;;;;;;;-145.79;53.42;76830.44;5326504;28;20481;-74
2023/09/05 09:15:11;;;;;;;21.15;19.05;;;;;;;-145.79;53.59;76830.44;5326557;28;20023;-74
2023/09/05 09:17:47;;;;;;;6.63;6.03;;;;;;;-145.79;53.22;76826.22;5326343;28;20032;-72
2023/09/05 09:20:19;;;;;;;4.00;3.60;;;;;;;-145.79;52.98;76817.72;5324209;28;20024;-72
2023/09/05 09:22:51;;;;;;;3.58;2.85;;;;;;;-145.79;52.87;76811.38;5326743;28;20051;-72
2023/09/05 09:25:23;;;;;;;4.70;2.80;;;;;;;-145.79;52.81;76788.06;5326116;28;20478;-71
2023/09/05 09:27:55;;;;;;;6.00;3.00;;;;;;;-145.79;52.46;76775.34;5324903;28;20043;-73
2023/09/05 09:30:29;;;;;;;3.22;2.92;;;;;;;-145.79;52.11;76783.81;5301166;28;20070;-74
2023/09/05 09:33:00;;;;;;;5.38;3.42;;;;;;;-145.79;52.21;76773.22;5326433;28;20393;-73
2023/09/05 09:35:32;;;;;;;5.07;2.50;;;;;;;-145.79;51.97;76769.00;5326368;28;20024;-70
2023/09/05 09:38:04;;;;;;;4.18;3.30;;;;;;;-145.79;52.01;76758.38;5326706;28;20063;-71
2023/09/05 09:40:38;;;;;;;6.15;2.83;;;;;;;-145.79;51.77;76739.31;5325535;28;20099;-71
2023/09/05 09:43:09;;;;;;;5.72;3.22;;;;;;;-145.79;51.74;76730.84;5326427;28;20084;-71
2023/09/05 09:45:41;;;;;;;3.65;3.20;;;;;;;-145.79;52.18;76720.25;5324976;28;20425;-72
2023/09/05 09:48:15;;;;;;;3.15;2.58;;;;;;;-145.79;51.73;76703.28;5318053;28;20031;-73
2023/09/05 09:50:48;;;;;;;4.68;3.00;;;;;;;-145.79;51.04;76696.94;5323047;28;20020;-72
2023/09/05 09:53:29;;;;;;;4.10;2.67;;;;;;;-145.79;50.90;76701.16;5319175;28;20028;-74
2023/09/05 09:56:05;;;;;;;4.85;2.72;;;;;;;-145.79;51.23;76686.34;5328810;27;20110;-73
2023/09/05 09:59:14;;;;;;;5.05;3.35;;;;;;;-145.79;51.29;76675.75;5325544;28;20027;-76
2023/09/05 10:01:47;;;;;;;5.82;2.90;;;;;;;-145.79;51.56;76671.50;5309359;28;20032;-73
2023/09/05 10:04:21;;;;;;;3.67;2.80;;;;;;;-145.79;50.92;76658.78;5312063;28;20028;-72
2023/09/05 10:06:54;;;;;;;3.45;2.58;;;;;;;-145.79;51.40;76650.31;5318663;28;20019;-73
2023/09/05 10:09:26;;;;;;;5.38;3.30;;;;;;;-145.79;51.51;76648.19;5318239;28;20077;-73
2023/09/05 10:12:00;;;;;;;4.88;3.08;;;;;;;-145.79;50.75;76639.72;5323537;28;20439;-73
2023/09/05 10:14:34;;;;;;;6.07;2.72;;;;;;;-145.79;50.71;76620.63;5314997;28;20479;-73
2023/09/05 10:17:06;;;;;;;4.03;2.80;;;;;;;-145.79;49.58;76618.53;5322476;28;20030;-73
2023/09/05 10:19:38;;;;;;;3.50;2.72;;;;;;;-145.79;49.76;76588.84;5324519;28;20466;-72
2023/09/05 10:22:11;;;;;;;5.35;2.80;;;;;;;-145.79;49.38;76588.84;5322108;28;20039;-72
2023/09/05 10:24:43;;;;;;;6.25;3.00;;;;;;;-145.79;49.29;76576.13;5323235;28;20073;-73
2023/09/05 10:27:15;;;;;;;4.97;2.60;;;;;;;-145.79;48.29;76584.59;5324000;28;20110;-72
2023/09/05 10:29:49;;;;;;;3.92;2.63;;;;;;;-145.79;48.29;76563.41;5320403;28;20020;-72
2023/09/05 10:32:23;;;;;;;3.25;2.90;;;;;;;-145.79;47.88;76567.66;5324261;28;20024;-74
2023/09/05 10:34:58;;;;;;;3.55;2.50;;;;;;;-145.79;47.44;76561.28;5324294;28;20034;-74
2023/09/05 10:37:43;;;;;;;3.33;2.30;;;;;;;-145.79;47.50;76542.22;5323156;28;20038;-74
2023/09/05 10:40:16;;;;;;;4.80;2.50;;;;;;;-145.79;46.92;76538.00;5324435;28;20047;-73
2023/09/05 10:42:50;;;;;;;5.47;2.83;;;;;;;-145.79;46.68;76531.63;5324017;28;20039;-73
2023/09/05 10:45:22;;;;;;;4.72;2.60;;;;;;;-145.79;47.53;76512.56;5322958;28;20027;-73
2023/09/05 10:47:58;;;;;;;4.43;3.10;;;;;;;-145.79;47.44;76506.19;5324100;28;20024;-72
2023/09/05 10:50:29;;;;;;;4.47;2.63;;;;;;;-145.79;46.72;76499.84;5323661;28;20023;-74
2023/09/05 10:53:12;;;;;;;2.97;2.65;;;;;;;-145.79;47.27;76487.13;5323308;28;20180;-74
2023/09/05 10:55:44;;;;;;;3.25;2.50;;;;;;;-145.79;46.32;76474.41;5322836;28;20046;-75
2023/09/05 10:58:54;;;;;;;4.40;2.42;;;;;;;-145.79;46.07;76472.28;5318326;28;20020;-73
2023/09/05 11:01:29;;;;;;;3.05;2.72;;;;;;;-145.79;44.78;76453.22;5311034;28;20052;-75
2023/09/05 11:04:08;;;;;;;4.22;2.60;;;;;;;-145.79;45.12;76446.88;5321777;28;20440;-73
2023/09/05 11:06:42;;;;;;;2.97;2.67;;;;;;;-145.79;45.20;76432.03;5323109;28;20016;-75
2023/09/05 11:09:13;;;;;;;3.30;2.30;;;;;;;-145.79;45.96;76432.03;5324026;28;20032;-73
2023/09/05 11:11:45;;;;;;;4.43;2.58;;;;;;;-145.79;45.95;76406.59;5322980;28;20068;-74
2023/09/05 11:14:16;;;;;;;7.88;3.40;;;;;;;-145.79;45.23;76412.97;5323369;28;20036;-73
2023/09/05 11:16:52;;;;;;;5.47;3.63;;;;;;;-145.79;44.58;76396.00;5323243;28;20069;-74
2023/09/05 11:19:45;;;;;;;7.10;5.55;;;;;;;-145.79;45.02;76391.78;5323043;28;20031;-75
2023/09/05 11:22:19;;;;;;;5.53;2.67;;;;;;;-145.79;44.40;76389.66;5323269;28;20051;-75
2023/09/05 11:24:53;;;;;;;4.28;2.60;;;;;;;-145.79;44.96;76372.69;5323799;28;20300;-75
2023/09/05 11:27:27;;;;;;;7.70;6.93;;;;;;;-145.79;44.38;76366.34;5322769;28;20497;-77
2023/09/05 11:30:00;;;;;;;3.40;2.47;;;;;;;-145.79;44.04;76368.47;5323368;28;20118;-77
2023/09/05 11:32:39;;;;;;;4.25;2.40;;;;;;;-145.79;44.26;76368.47;5323490;28;20030;-76
2023/09/05 11:35:10;;;;;;;3.88;2.38;;;;;;;-145.79;43.40;76336.66;5323486;28;20035;-75
2023/09/05 11:37:44;;;;;;;3.42;3.13;;;;;;;-145.79;43.53;76334.56;5314593;28;20028;-74
2023/09/05 11:40:20;;;;;;;4.43;2.55;;;;;;;-145.79;43.57;76328.19;5322956;28;20138;-78
2023/09/05 11:43:08;;;;;;;3.65;2.53;;;;;;;-145.79;43.67;76304.88;5322863;28;20057;-77
2023/09/05 11:45:43;;;;;;;5.43;2.60;;;;;;;-145.79;42.96;76283.69;5323045;28;20035;-75
2023/09/05 11:48:14;;;;;;;3.40;2.20;;;;;;;-145.79;42.73;76275.22;5322565;28;20142;-75
2023/09/05 11:50:46;;;;;;;2.65;1.95;;;;;;;-145.79;42.17;76264.63;5323203;28;20035;-80
2023/09/05 11:53:19;;;;;;;3.97;2.20;;;;;;;-145.79;41.38;76249.78;5323216;28;20032;-80
2023/09/05 11:55:51;;;;;;;2.40;2.20;;;;;;;-145.79;42.17;76258.25;5321970;28;20043;-77
2023/09/05 11:58:23;;;;;;;3.13;2.40;;;;;;;-145.79;42.70;76249.78;5317123;28;20031;-72
2023/09/05 12:00:54;;;;;;;2.50;2.30;;;;;;;-145.79;42.24;76237.06;5312171;28;20035;-73
2023/09/05 12:03:28;;;;;;;4.88;2.45;;;;;;;-145.79;42.45;76224.38;5318824;28;20019;-73
2023/09/05 12:06:01;;;;;;;5.13;2.30;;;;;;;-145.79;42.70;76213.75;5322142;28;20019;-74
2023/09/05 12:08:34;;;;;;;7.40;2.42;;;;;;;-145.79;42.66;76209.53;5322481;28;20446;-74
2023/09/05 12:11:07;;;;;;;5.05;2.15;;;;;;;-145.79;42.92;76190.47;5320555;28;20466;-74
2023/09/05 12:13:43;;;;;;;5.15;2.70;;;;;;;-145.79;43.05;76181.97;5322780;28;20027;-73
2023/09/05 12:16:17;;;;;;;4.05;2.80;;;;;;;-145.79;42.80;76152.31;5323107;28;20051;-73
2023/09/05 12:18:57;;;;;;;3.38;2.03;;;;;;;-145.79;42.76;76156.56;5326119;28;20362;-74
2023/09/05 12:21:47;;;;;;;3.00;2.45;;;;;;;-145.79;42.15;76139.59;5325020;28;20431;-76
2023/09/05 12:24:23;;;;;;;4.35;3.10;;;;;;;-145.79;42.29;76139.59;5324450;28;20053;-77
2023/09/05 12:26:59;;;;;;;5.22;2.65;;;;;;;-145.79;42.20;76137.47;5325810;28;20019;-77
2023/09/05 12:29:40;;;;;;;2.63;2.13;;;;;;;-145.79;42.31;76124.78;5318036;28;20185;-77
2023/09/05 12:32:11;;;;;;;4.97;2.67;;;;;;;-145.79;42.48;76122.66;5310127;28;20031;-78
2023/09/05 12:34:43;;;;;;;3.47;2.55;;;;;;;-145.79;42.34;76088.75;5321753;28;20024;-78
2023/09/05 12:37:14;;;;;;;4.18;2.63;;;;;;;-145.79;42.16;76088.75;5319246;28;20059;-77
2023/09/05 12:39:46;;;;;;;6.40;2.22;;;;;;;-145.79;41.79;76088.75;5326178;28;20027;-76
2023/09/05 12:42:18;;;;;;;4.20;2.22;;;;;;;-145.79;41.82;76092.97;5326342;28;20378;-77
2023/09/05 12:44:49;;;;;;;3.17;1.98;;;;;;;-145.79;41.42;76071.78;5325816;28;20059;-75
2023/09/05 12:47:20;;;;;;;4.05;2.63;;;;;;;-145.79;41.21;76056.97;5316849;28;20507;-78
2023/09/05 12:49:53;;;;;;;5.88;2.60;;;;;;;-145.79;41.63;76063.31;5326201;28;20019;-76
2023/09/05 12:52:24;;;;;;;2.85;2.40;;;;;;;-145.79;42.07;76042.13;5326707;28;20042;-71
2023/09/05 12:54:56;;;;;;;4.10;2.60;;;;;;;-145.79;42.31;76027.28;5327520;28;20035;-71
2023/09/05 12:57:28;;;;;;;3.13;2.65;;;;;;;-145.79;40.81;76008.22;5326164;28;20103;-69
2023/09/05 13:00:00;;;;;;;3.38;2.30;;;;;;;-145.79;39.87;76008.22;5327144;28;20035;-73
2023/09/05 13:02:32;;;;;;;3.00;2.40;;;;;;;-145.79;39.80;76020.94;5326942;28;20103;-74
2023/09/05 13:05:03;;;;;;;3.97;1.90;;;;;;;-145.79;39.94;75982.81;5325773;28;20103;-75
2023/09/05 13:07:35;;;;;;;18.48;16.80;;;;;;;-145.79;40.32;75982.81;5327291;28;20058;-76
2023/09/05 13:10:07;;;;;;;6.95;2.78;;;;;;;-145.79;39.77;75980.69;5326826;28;20027;-77
2023/09/05 13:12:38;;;;;;;2.55;2.15;;;;;;;-145.79;40.36;75987.03;5326431;28;20028;-76
2023/09/05 13:15:10;;;;;;;3.78;2.28;;;;;;;-145.79;40.60;75955.25;5326790;28;20038;-76
2023/09/05 13:17:45;;;;;;;2.53;2.15;;;;;;;-145.79;40.21;75940.41;5326132;28;20338;-76
2023/09/05 13:20:17;;;;;;;3.75;2.45;;;;;;;-145.79;40.48;75944.66;5325493;28;20474;-77
2023/09/05 13:22:50;;;;;;;2.33;2.00;;;;;;;-145.79;40.37;75940.41;5327291;28;20063;-82
2023/09/05 13:25:24;;;;;;;2.53;2.30;;;;;;;-145.79;40.14;75915.00;5325871;28;20102;-77
2023/09/05 13:27:56;;;;;;;5.07;2.95;;;;;;;-145.79;39.73;75919.22;5324875;28;20069;-76
2023/09/05 13:30:28;;;;;;;5.00;2.50;;;;;;;-145.79;39.85;75917.13;5326489;28;20019;-73
2023/09/05 13:32:59;;;;;;;5.63;5.15;;;;;;;-145.79;40.02;75895.94;5325669;28;20039;-73
2023/09/05 13:35:35;;;;;;;4.63;2.60;;;;;;;-145.79;40.22;75887.44;5317405;28;20028;-76
2023/09/05 13:38:06;;;;;;;6.78;2.95;;;;;;;-145.79;39.16;75885.34;5326728;28;20039;-74
2023/09/05 13:40:38;;;;;;;4.00;2.20;;;;;;;-145.79;39.53;75878.97;5325602;28;20023;-74
2023/09/05 13:43:09;;;;;;;21.85;19.92;;;;;;;-145.79;39.78;75878.97;5326934;28;20531;-75
2023/09/05 13:45:41;;;;;;;4.35;3.17;;;;;;;-145.79;39.02;75872.63;5327472;28;20034;-75
2023/09/05 13:48:12;;;;;;;3.20;2.30;;;;;;;-145.79;38.74;75868.38;5325691;28;20035;-76
2023/09/05 13:50:43;;;;;;;3.40;2.38;;;;;;;-145.79;38.81;75855.66;5326751;28;20035;-76
2023/09/05 13:53:16;;;;;;;3.17;2.25;;;;;;;-145.79;38.40;75872.63;5323681;28;20027;-74
2023/09/05 13:55:47;;;;;;;2.90;2.20;;;;;;;-145.79;38.76;75859.91;5323212;28;20103;-76
2023/09/05 13:58:19;;;;;;;2.88;2.45;;;;;;;-145.79;38.52;75855.66;5326297;28;20103;-74
2023/09/05 14:00:51;;;;;;;7.43;2.47;;;;;;;-145.79;39.02;75840.84;5324718;28;20020;-75
2023/09/05 14:03:23;;;;;;;5.68;2.85;;;;;;;-145.79;38.74;75847.19;5326156;28;20109;-78
2023/09/05 14:05:54;;;;;;;4.10;2.85;;;;;;;-145.79;38.79;75840.84;5326482;28;20028;-77
2023/09/05 14:08:26;;;;;;;3.63;2.35;;;;;;;-145.79;38.99;75826.00;5320312;28;20031;-77
2023/09/05 14:10:58;;;;;;;3.28;2.33;;;;;;;-145.79;38.84;75826.00;5323035;28;20063;-78
2023/09/05 14:13:29;;;;;;;3.30;2.60;;;;;;;-145.79;38.86;75823.88;5325732;28;20135;-78
2023/09/05 14:16:02;;;;;;;2.63;2.30;;;;;;;-145.79;38.54;75817.53;5325210;28;20106;-78
2023/09/05 14:18:36;;;;;;;6.03;2.70;;;;;;;-145.79;37.94;75819.66;5326136;28;20016;-77
2023/09/05 14:21:07;;;;;;;3.13;1.98;;;;;;;-145.79;38.07;75809.06;5323184;28;20036;-77
2023/09/05 14:23:40;;;;;;;6.43;1.83;;;;;;;-145.79;38.30;75813.28;5324460;28;20023;-77
2023/09/05 14:26:11;;;;;;;5.35;2.60;;;;;;;-145.79;38.46;75804.81;5323874;28;20073;-78
2023/09/05 14:28:44;;;;;;;2.83;2.33;;;;;;;-145.79;38.46;75813.28;5324955;28;20024;-77
2023/09/05 14:31:15;;;;;;;5.93;2.25;;;;;;;-145.79;38.55;75826.00;5324883;28;20049;-78
2023/09/05 14:33:47;;;;;;;4.70;2.00;;;;;;;-145.79;38.23;75828.13;5325612;28;20019;-77
2023/09/05 14:36:18;;;;;;;4.35;2.47;;;;;;;-145.79;38.19;75826.00;5324742;28;20034;-78
2023/09/05 14:38:49;;;;;;;2.55;2.10;;;;;;;-145.79;38.39;75823.88;5324998;28;20378;-78
2023/09/05 14:41:30;;;;;;;5.55;2.42;;;;;;;-145.79;38.05;75838.72;5325313;28;20026;-79
2023/09/05 14:44:04;;;;;;;7.15;2.20;;;;;;;-145.79;38.36;75834.47;5315942;28;20042;-75
2023/09/05 14:46:35;;;;;;;3.60;2.45;;;;;;;-145.79;38.57;75826.00;5324639;28;20028;-78
2023/09/05 14:49:10;;;;;;;3.63;2.58;;;;;;;-145.79;38.79;75834.47;5325004;28;20027;-77
2023/09/05 14:51:41;;;;;;;5.90;2.13;;;;;;;-145.79;39.33;75823.88;5324292;28;20019;-78
2023/09/05 14:54:13;;;;;;;4.13;2.17;;;;;;;-145.79;39.27;75826.00;5325200;28;20479;-77
2023/09/05 14:56:44;;;;;;;6.75;3.55;;;;;;;-145.79;39.60;75834.47;5323903;28;20015;-77
2023/09/05 14:59:17;;;;;;;5.72;2.33;;;;;;;-145.79;39.06;75851.44;5311595;28;20031;-77
2023/09/05 15:01:48;;;;;;;5.72;3.10;;;;;;;-145.79;39.20;75842.97;5324453;28;20066;-73
2023/09/05 15:04:20;;;;;;;6.43;2.40;;;;;;;-145.79;39.22;75842.97;5324363;28;20077;-75
2023/09/05 15:06:51;;;;;;;13.90;12.70;;;;;;;-145.79;39.25;75847.19;5325156;28;20019;-78
2023/09/05 15:09:22;;;;;;;4.93;2.67;;;;;;;-145.79;39.56;75859.91;5324723;28;20038;-77
2023/09/05 15:11:53;;;;;;;4.30;2.08;;;;;;;-145.79;39.73;75872.63;5324015;28;20035;-75
2023/09/05 15:14:25;;;;;;;5.43;2.28;;;;;;;-145.79;40.00;75885.34;5318701;28;20028;-76
2023/09/05 15:16:57;;;;;;;5.53;2.25;;;;;;;-145.79;39.91;75885.34;5323041;28;20019;-76
2023/09/05 15:19:28;;;;;;;3.05;2.42;;;;;;;-145.79;40.03;75904.41;5316460;28;20116;-76
2023/09/05 15:21:59;;;;;;;4.75;3.38;;;;;;;-145.79;40.21;75910.75;5324602;28;20071;-75
2023/09/05 15:24:31;;;;;;;5.72;2.72;;;;;;;-145.79;40.12;75915.00;5324421;28;20570;-75
2023/09/05 15:27:02;;;;;;;6.88;3.05;;;;;;;-145.79;40.44;75906.53;5323272;28;20407;-74
2023/09/05 15:29:33;;;;;;;3.97;2.45;;;;;;;-145.79;40.13;75906.53;5324835;28;20028;-73
2023/09/05 15:32:05;;;;;;;4.20;2.72;;;;;;;-145.79;40.17;75908.63;5323955;28;20478;-74
2023/09/05 15:34:37;;;;;;;4.03;2.90;;;;;;;-145.79;40.04;75902.28;5324033;28;20020;-73
2023/09/05 15:37:08;;;;;;;4.70;2.88;;;;;;;-145.79;40.41;75904.41;5323310;28;20023;-73
2023/09/05 15:39:41;;;;;;;5.55;2.45;;;;;;;-145.79;40.41;75893.81;5322357;28;20531;-74
2023/09/05 15:42:13;;;;;;;3.35;2.20;;;;;;;-145.79;40.06;75906.53;5324886;28;20031;-75
2023/09/05 15:44:45;;;;;;;4.07;2.40;;;;;;;-145.79;40.31;75915.00;5328487;28;20069;-75
2023/09/05 15:47:16;;;;;;;3.60;2.22;;;;;;;-145.79;40.10;75904.41;5328028;28;20028;-74
2023/09/05 15:49:47;;;;;;;6.65;3.50;;;;;;;-145.79;40.20;75915.00;5325910;28;20513;-75
2023/09/05 15:52:19;;;;;;;3.47;2.10;;;;;;;-145.79;40.27;75910.75;5322431;28;20158;-75
2023/09/05 15:54:50;;;;;;;3.13;2.20;;;;;;;-145.79;39.89;75900.16;5327934;28;20434;-76
2023/09/05 15:57:21;;;;;;;3.65;2.25;;;;;;;-145.79;39.85;75902.28;5328880;28;20076;-75
2023/09/05 15:59:55;;;;;;;4.30;2.80;;;;;;;-145.79;40.06;75898.03;5327897;28;20027;-76
2023/09/05 16:02:26;;;;;;;4.28;2.08;;;;;;;-145.79;40.12;75902.28;5328458;28;20057;-76
2023/09/05 16:04:57;;;;;;;3.47;2.65;;;;;;;-145.79;40.22;75912.88;5328076;28;20032;-77
2023/09/05 16:07:29;;;;;;;4.63;2.85;;;;;;;-145.79;39.92;75889.56;5326590;28;20023;-76
2023/09/05 16:10:00;;;;;;;4.93;2.50;;;;;;;-145.79;39.53;75904.41;5328205;28;20050;-76
2023/09/05 16:12:31;;;;;;;6.95;3.55;;;;;;;-145.79;39.65;75900.16;5328116;28;20047;-76
2023/09/05 16:15:03;;;;;;;4.60;2.35;;;;;;;-145.79;39.81;75902.28;5326568;28;20042;-77
2023/09/05 16:17:35;;;;;;;2.40;2.15;;;;;;;-145.79;39.59;75902.28;5328454;28;20024;-79
2023/09/05 16:20:08;;;;;;;3.17;2.40;;;;;;;-145.79;40.95;75893.81;5328144;28;20023;-71
2023/09/05 16:22:39;;;;;;;4.32;2.63;;;;;;;-145.79;41.87;75917.13;5324361;28;20097;-71
2023/09/05 16:25:10;;;;;;;3.58;2.45;;;;;;;-145.79;41.98;75902.28;5327655;28;20416;-71
2023/09/05 16:27:41;;;;;;;4.43;2.45;;;;;;;-145.79;42.42;75906.53;5328529;28;20058;-71
2023/09/05 16:30:13;;;;;;;4.65;2.30;;;;;;;-145.79;41.99;75917.13;5326838;28;20106;-73
2023/09/05 16:32:44;;;;;;;4.45;2.47;;;;;;;-145.79;42.41;75917.13;5328454;28;20099;-74
2023/09/05 16:35:15;;;;;;;5.63;3.05;;;;;;;-145.79;42.65;75917.13;5327094;28;20072;-72
2023/09/05 16:37:47;;;;;;;4.82;3.30;;;;;;;-145.79;42.91;75921.34;5327706;28;20088;-70
2023/09/05 16:40:18;;;;;;;4.03;2.67;;;;;;;-145.79;43.35;75927.72;5327028;28;20089;-71
2023/09/05 16:42:49;;;;;;;7.60;3.25;;;;;;;-145.79;43.21;75923.47;5318164;28;20415;-68
2023/09/05 16:45:21;;;;;;;4.90;3.30;;;;;;;-145.79;43.39;75927.72;5327668;28;20528;-71
2023/09/05 16:47:54;;;;;;;4.53;2.80;;;;;;;-145.79;43.90;75953.13;5327868;28;20027;-71
2023/09/05 16:50:25;;;;;;;3.35;2.70;;;;;;;-145.79;44.45;75965.84;5326883;28;20122;-71
2023/09/05 16:52:56;;;;;;;3.63;2.47;;;;;;;-145.79;44.50;75972.22;5327685;28;20115;-71
